createdAt,value
2023-04-10T00:00:26.468Z,1.55
2023-04-10T00:01:29.137Z,1.28
2023-04-10T00:02:32.345Z,1.48
2023-04-10T00:03:35.175Z,1.13
2023-04-10T00:04:37.949Z,1.17
2023-04-10T00:05:40.728Z,1.12
2023-04-10T00:06:43.332Z,1.20
2023-04-10T00:07:46.277Z,1.30
2023-04-10T00:08:49.146Z,1.12
2023-04-10T00:09:52.125Z,1.09
2023-04-10T00:10:55.101Z,0.97
2023-04-10T00:11:57.979Z,1.16
2023-04-10T00:13:01.465Z,1.17
2023-04-10T00:14:04.547Z,0.99
2023-04-10T00:15:07.441Z,1.03
2023-04-10T00:16:10.711Z,1.03
2023-04-10T00:17:13.579Z,1.04
2023-04-10T00:18:16.582Z,1.12
2023-04-10T00:19:19.438Z,0.96
2023-04-10T00:20:22.305Z,1.09
2023-04-10T00:21:25.182Z,1.07
2023-04-10T00:22:28.054Z,0.93
2023-04-10T00:23:31.034Z,0.98
2023-04-10T00:24:33.906Z,1.00
2023-04-10T00:25:36.781Z,0.98
2023-04-10T00:26:39.665Z,1.10
2023-04-10T00:27:42.530Z,1.24
2023-04-10T00:28:45.619Z,0.89
2023-04-10T00:29:48.379Z,0.90
2023-04-10T00:30:51.671Z,1.12
2023-04-10T00:31:54.576Z,1.09
2023-04-10T00:32:57.474Z,0.88
2023-04-10T00:34:00.402Z,1.03
2023-04-10T00:35:03.271Z,1.11
2023-04-10T00:36:06.332Z,1.06
2023-04-10T00:37:09.118Z,0.96
2023-04-10T00:38:12.049Z,0.95
2023-04-10T00:39:14.980Z,0.95
2023-04-10T00:40:17.537Z,0.85
2023-04-10T00:41:20.217Z,0.85
2023-04-10T00:42:22.879Z,0.89
2023-04-10T00:43:25.562Z,1.01
2023-04-10T00:44:28.116Z,1.37
2023-04-10T00:45:30.700Z,0.91
2023-04-10T00:46:33.340Z,1.04
2023-04-10T00:47:36.303Z,1.09
2023-04-10T00:48:39.129Z,1.13
2023-04-10T00:49:41.982Z,1.11
2023-04-10T00:50:44.854Z,1.08
2023-04-10T00:51:47.832Z,1.04
2023-04-10T00:52:50.609Z,0.90
2023-04-10T00:53:54.020Z,0.95
2023-04-10T00:54:57.069Z,0.82
2023-04-10T00:55:59.749Z,1.04
2023-04-10T00:57:02.681Z,1.04
2023-04-10T00:58:05.700Z,1.01
2023-04-10T00:59:08.564Z,0.95
2023-04-10T01:00:11.546Z,1.10
2023-04-10T01:01:14.466Z,1.05
2023-04-10T01:02:17.434Z,1.08
2023-04-10T01:03:20.568Z,0.89
2023-04-10T01:04:23.436Z,0.81
2023-04-10T01:05:26.432Z,1.04
2023-04-10T01:06:29.413Z,1.15
2023-04-10T01:07:32.281Z,0.73
2023-04-10T01:08:34.958Z,0.93
2023-04-10T01:09:37.821Z,1.52
2023-04-10T01:10:40.795Z,0.90
2023-04-10T01:11:43.570Z,0.84
2023-04-10T01:12:46.449Z,0.84
2023-04-10T01:13:49.115Z,0.92
2023-04-10T01:14:51.853Z,1.01
2023-04-10T01:15:54.669Z,1.04
2023-04-10T01:16:57.356Z,1.05
2023-04-10T01:17:59.939Z,0.88
2023-04-10T01:19:02.583Z,1.06
2023-04-10T01:20:05.237Z,1.04
2023-04-10T01:21:07.802Z,0.96
2023-04-10T01:22:10.275Z,1.24
2023-04-10T01:23:12.842Z,1.67
2023-04-10T01:24:15.509Z,0.91
2023-04-10T01:25:18.180Z,0.97
2023-04-10T01:26:21.160Z,0.73
2023-04-10T01:27:23.820Z,1.08
2023-04-10T01:28:26.494Z,1.05
2023-04-10T01:29:29.161Z,1.02
2023-04-10T01:30:31.838Z,0.93
2023-04-10T01:31:34.704Z,1.07
2023-04-10T01:32:37.602Z,0.84
2023-04-10T01:33:40.354Z,1.00
2023-04-10T01:34:43.082Z,0.95
2023-04-10T01:35:45.740Z,1.09
2023-04-10T01:36:48.365Z,0.86
2023-04-10T01:37:51.238Z,0.92
2023-04-10T01:38:53.916Z,1.04
2023-04-10T01:39:56.575Z,0.92
2023-04-10T01:40:59.462Z,1.03
2023-04-10T01:42:02.333Z,1.12
2023-04-10T01:43:05.309Z,0.94
2023-04-10T01:44:08.080Z,0.89
2023-04-10T01:45:10.746Z,0.93
2023-04-10T01:46:13.661Z,1.05
2023-04-10T01:47:16.532Z,1.07
2023-04-10T01:48:19.275Z,0.98
2023-04-10T01:49:22.142Z,1.15
2023-04-10T01:50:25.131Z,0.84
2023-04-10T01:51:28.014Z,0.88
2023-04-10T01:52:30.875Z,0.97
2023-04-10T01:53:35.232Z,1.03
2023-04-10T01:54:38.053Z,1.51
2023-04-10T01:55:40.954Z,1.88
2023-04-10T01:56:43.710Z,0.92
2023-04-10T01:57:46.689Z,1.00
2023-04-10T01:58:49.960Z,0.95
2023-04-10T01:59:52.835Z,0.95
2023-04-10T02:00:55.710Z,1.07
2023-04-10T02:01:58.470Z,0.89
2023-04-10T02:03:01.519Z,1.02
2023-04-10T02:04:04.401Z,0.88
2023-04-10T02:05:07.065Z,0.78
2023-04-10T02:06:09.679Z,0.82
2023-04-10T02:07:12.444Z,1.05
2023-04-10T02:08:15.626Z,0.82
2023-04-10T02:09:18.513Z,0.91
2023-04-10T02:10:21.068Z,0.89
2023-04-10T02:11:23.949Z,0.88
2023-04-10T02:12:26.820Z,0.88
2023-04-10T02:13:29.810Z,0.82
2023-04-10T02:14:32.675Z,0.78
2023-04-10T02:15:35.579Z,0.79
2023-04-10T02:16:38.426Z,0.92
2023-04-10T02:17:41.335Z,1.28
2023-04-10T02:18:43.963Z,1.18
2023-04-10T02:19:46.849Z,1.51
2023-04-10T02:20:49.417Z,1.13
2023-04-10T02:21:52.281Z,0.81
2023-04-10T02:22:55.159Z,0.96
2023-04-10T02:23:58.043Z,0.88
2023-04-10T02:25:00.910Z,0.92
2023-04-10T02:26:03.887Z,0.78
2023-04-10T02:27:06.867Z,0.75
2023-04-10T02:28:09.739Z,0.77
2023-04-10T02:29:12.911Z,0.86
2023-04-10T02:30:15.896Z,0.86
2023-04-10T02:31:18.790Z,1.12
2023-04-10T02:32:21.757Z,0.81
2023-04-10T02:33:24.617Z,0.96
2023-04-10T02:34:28.005Z,0.90
2023-04-10T02:35:30.958Z,1.03
2023-04-10T02:36:33.856Z,0.85
2023-04-10T02:37:37.786Z,0.88
2023-04-10T02:38:40.583Z,0.71
2023-04-10T02:39:43.609Z,0.79
2023-04-10T02:40:46.493Z,0.81
2023-04-10T02:41:49.767Z,0.76
2023-04-10T02:42:52.455Z,0.77
2023-04-10T02:43:55.185Z,0.85
2023-04-10T02:44:57.877Z,0.72
2023-04-10T02:46:00.545Z,0.75
2023-04-10T02:47:03.301Z,0.75
2023-04-10T02:48:05.911Z,0.83
2023-04-10T02:49:08.455Z,0.82
2023-04-10T02:50:11.138Z,0.83
2023-04-10T02:51:13.998Z,0.86
2023-04-10T02:52:16.875Z,0.87
2023-04-10T02:53:19.754Z,1.04
2023-04-10T02:54:22.636Z,0.91
2023-04-10T02:55:25.598Z,0.88
2023-04-10T02:56:28.477Z,0.72
2023-04-10T02:57:31.353Z,1.04
2023-04-10T02:58:34.247Z,1.14
2023-04-10T02:59:37.105Z,0.90
2023-04-10T03:00:40.078Z,0.92
2023-04-10T03:01:42.936Z,0.95
2023-04-10T03:02:45.972Z,1.12
2023-04-10T03:03:48.985Z,0.71
2023-04-10T03:04:51.953Z,0.82
2023-04-10T03:05:54.757Z,0.88
2023-04-10T03:06:57.561Z,0.82
2023-04-10T03:08:00.411Z,0.95
2023-04-10T03:09:03.174Z,0.85
2023-04-10T03:10:06.061Z,1.01
2023-04-10T03:11:08.624Z,0.83
2023-04-10T03:12:11.592Z,0.99
2023-04-10T03:13:15.491Z,1.05
2023-04-10T03:14:18.369Z,0.84
2023-04-10T03:15:21.243Z,1.07
2023-04-10T03:16:24.505Z,0.92
2023-04-10T03:17:27.516Z,0.96
2023-04-10T03:18:30.386Z,0.78
2023-04-10T03:19:33.254Z,0.72
2023-04-10T03:20:36.027Z,0.86
2023-04-10T03:21:39.520Z,1.07
2023-04-10T03:22:42.386Z,0.78
2023-04-10T03:23:45.264Z,0.95
2023-04-10T03:24:48.461Z,0.88
2023-04-10T03:25:51.421Z,0.89
2023-04-10T03:26:55.840Z,0.83
2023-04-10T03:27:58.615Z,1.04
2023-04-10T03:29:01.278Z,1.30
2023-04-10T03:30:03.961Z,1.25
2023-04-10T03:31:06.672Z,0.93
2023-04-10T03:32:09.803Z,0.72
2023-04-10T03:33:12.508Z,1.00
2023-04-10T03:34:15.139Z,0.88
2023-04-10T03:35:18.012Z,1.07
2023-04-10T03:36:20.918Z,1.10
2023-04-10T03:37:36.119Z,0.76
2023-04-10T03:38:38.626Z,0.75
2023-04-10T03:39:41.386Z,0.90
2023-04-10T03:40:44.058Z,1.22
2023-04-10T03:41:46.626Z,0.98
2023-04-10T03:42:49.194Z,1.09
2023-04-10T03:43:52.273Z,1.07
2023-04-10T03:44:55.352Z,0.92
2023-04-10T03:45:58.031Z,1.01
2023-04-10T03:47:00.906Z,0.82
2023-04-10T03:48:04.044Z,0.85
2023-04-10T03:49:06.856Z,0.76
2023-04-10T03:50:09.738Z,1.11
2023-04-10T03:51:12.506Z,1.18
2023-04-10T03:52:15.375Z,0.96
2023-04-10T03:53:18.252Z,1.48
2023-04-10T03:54:21.122Z,1.65
2023-04-10T03:55:24.227Z,0.92
2023-04-10T03:56:27.072Z,1.02
2023-04-10T03:57:30.059Z,1.08
2023-04-10T03:58:33.042Z,1.54
2023-04-10T03:59:38.962Z,1.07
2023-04-10T04:00:40.340Z,0.87
2023-04-10T04:01:43.350Z,0.85
2023-04-10T04:02:46.632Z,0.85
2023-04-10T04:03:51.344Z,0.92
2023-04-10T04:04:54.410Z,0.83
2023-04-10T04:05:57.257Z,0.86
2023-04-10T04:07:00.136Z,0.78
2023-04-10T04:08:02.906Z,0.68
2023-04-10T04:09:06.076Z,0.95
2023-04-10T04:10:08.956Z,1.48
2023-04-10T04:11:11.929Z,1.35
2023-04-10T04:12:14.801Z,0.98
2023-04-10T04:13:17.677Z,1.01
2023-04-10T04:14:20.654Z,0.70
2023-04-10T04:15:23.640Z,0.79
2023-04-10T04:16:26.531Z,0.74
2023-04-10T04:17:29.396Z,1.02
2023-04-10T04:18:32.253Z,0.88
2023-04-10T04:19:35.235Z,0.72
2023-04-10T04:20:38.002Z,0.78
2023-04-10T04:21:40.575Z,0.80
2023-04-10T04:22:43.245Z,1.16
2023-04-10T04:23:45.912Z,1.37
2023-04-10T04:24:48.680Z,1.34
2023-04-10T04:25:51.261Z,1.19
2023-04-10T04:26:53.949Z,1.02
2023-04-10T04:27:56.485Z,0.93
2023-04-10T04:28:59.055Z,1.04
2023-04-10T04:30:01.626Z,1.07
2023-04-10T04:31:04.306Z,1.19
2023-04-10T04:32:07.094Z,1.28
2023-04-10T04:33:10.016Z,1.25
2023-04-10T04:34:13.224Z,1.35
2023-04-10T04:35:16.715Z,1.17
2023-04-10T04:36:19.684Z,1.31
2023-04-10T04:37:22.465Z,1.58
2023-04-10T04:38:25.352Z,1.63
2023-04-10T04:39:28.213Z,1.53
2023-04-10T04:40:31.599Z,1.50
2023-04-10T04:41:34.383Z,1.52
2023-04-10T04:42:37.368Z,1.38
2023-04-10T04:43:40.226Z,1.78
2023-04-10T04:44:43.100Z,1.35
2023-04-10T04:45:45.707Z,1.48
2023-04-10T04:46:48.235Z,1.73
2023-04-10T04:47:51.116Z,1.37
2023-04-10T04:48:53.676Z,1.67
2023-04-10T04:49:56.278Z,1.61
2023-04-10T04:50:59.632Z,1.65
2023-04-10T04:52:02.809Z,1.57
2023-04-10T04:53:07.840Z,1.63
2023-04-10T04:54:09.785Z,1.71
2023-04-10T04:55:12.665Z,1.56
2023-04-10T04:56:15.655Z,1.86
2023-04-10T04:57:18.523Z,1.61
2023-04-10T04:58:21.503Z,1.52
2023-04-10T04:59:24.469Z,1.83
2023-04-10T05:00:27.349Z,1.92
2023-04-10T05:01:30.579Z,1.76
2023-04-10T05:02:33.513Z,1.50
2023-04-10T05:03:36.407Z,1.76
2023-04-10T05:04:39.355Z,1.75
2023-04-10T05:05:42.143Z,1.66
2023-04-10T05:06:45.517Z,1.67
2023-04-10T05:07:48.397Z,1.88
2023-04-10T05:08:51.263Z,1.72
2023-04-10T05:09:54.132Z,1.64
2023-04-10T05:10:56.705Z,1.86
2023-04-10T05:11:59.992Z,1.68
2023-04-10T05:13:11.265Z,1.42
2023-04-10T05:14:14.235Z,1.22
2023-04-10T05:15:17.113Z,2.42
2023-04-10T05:16:20.080Z,2.22
2023-04-10T05:17:23.020Z,1.56
2023-04-10T05:18:26.043Z,1.94
2023-04-10T05:19:28.731Z,1.83
2023-04-10T05:20:31.492Z,1.68
2023-04-10T05:21:34.359Z,2.02
2023-04-10T05:22:37.056Z,1.60
2023-04-10T05:23:40.157Z,1.40
2023-04-10T05:24:42.885Z,1.29
2023-04-10T05:25:45.558Z,1.60
2023-04-10T05:26:48.222Z,1.55
2023-04-10T05:27:50.896Z,1.73
2023-04-10T05:28:53.909Z,1.37
2023-04-10T05:29:58.069Z,1.85
2023-04-10T05:31:01.023Z,1.81
2023-04-10T05:32:04.141Z,1.62
2023-04-10T05:33:07.001Z,1.37
2023-04-10T05:34:09.980Z,1.36
2023-04-10T05:35:12.850Z,1.62
2023-04-10T05:36:15.858Z,1.62
2023-04-10T05:37:18.714Z,1.58
2023-04-10T05:38:21.815Z,1.52
2023-04-10T05:39:24.895Z,1.63
2023-04-10T05:40:27.648Z,1.72
2023-04-10T05:41:30.412Z,1.59
2023-04-10T05:42:33.285Z,1.62
2023-04-10T05:43:36.265Z,1.53
2023-04-10T05:44:39.239Z,1.41
2023-04-10T05:45:43.717Z,1.40
2023-04-10T05:46:46.601Z,1.61
2023-04-10T05:47:49.758Z,1.62
2023-04-10T05:48:52.895Z,1.48
2023-04-10T05:49:56.085Z,1.32
2023-04-10T05:51:00.346Z,1.50
2023-04-10T05:52:03.052Z,1.39
2023-04-10T05:53:06.026Z,1.56
2023-04-10T05:54:08.915Z,1.67
2023-04-10T05:55:11.994Z,1.61
2023-04-10T05:56:14.750Z,1.23
2023-04-10T05:57:17.641Z,1.35
2023-04-10T05:58:20.604Z,1.48
2023-04-10T05:59:24.708Z,1.46
2023-04-10T06:00:27.595Z,1.46
2023-04-10T06:01:35.710Z,1.16
2023-04-10T06:02:38.551Z,1.27
2023-04-10T06:03:41.693Z,1.31
2023-04-10T06:04:44.758Z,1.45
2023-04-10T06:05:48.008Z,1.62
2023-04-10T06:06:50.668Z,1.80
2023-04-10T06:07:53.336Z,1.98
2023-04-10T06:08:56.084Z,2.01
2023-04-10T06:09:58.893Z,1.84
2023-04-10T06:11:01.883Z,1.51
2023-04-10T06:12:04.547Z,1.55
2023-04-10T06:13:09.837Z,1.57
2023-04-10T06:14:11.300Z,1.29
2023-04-10T06:15:13.878Z,1.21
2023-04-10T06:16:17.090Z,1.12
2023-04-10T06:17:19.752Z,1.24
2023-04-10T06:18:22.804Z,1.35
2023-04-10T06:19:25.575Z,1.42
2023-04-10T06:20:28.300Z,1.68
2023-04-10T06:21:31.032Z,1.69
2023-04-10T06:22:33.582Z,1.45
2023-04-10T06:23:36.263Z,1.40
2023-04-10T06:24:38.935Z,1.44
2023-04-10T06:25:41.597Z,1.34
2023-04-10T06:26:44.363Z,1.47
2023-04-10T06:27:47.032Z,1.50
2023-04-10T06:28:50.432Z,1.51
2023-04-10T06:29:53.202Z,1.43
2023-04-10T06:30:56.218Z,1.38
2023-04-10T06:31:59.355Z,1.54
2023-04-10T06:33:09.303Z,1.46
2023-04-10T06:34:12.062Z,1.51
2023-04-10T06:35:14.745Z,1.52
2023-04-10T06:36:17.827Z,1.50
2023-04-10T06:37:21.013Z,1.55
2023-04-10T06:38:24.072Z,1.55
2023-04-10T06:39:26.860Z,1.78
2023-04-10T06:40:35.963Z,1.20
2023-04-10T06:41:38.648Z,1.54
2023-04-10T06:42:41.512Z,1.67
2023-04-10T06:43:44.499Z,1.50
2023-04-10T06:44:47.092Z,1.61
2023-04-10T06:45:50.136Z,1.82
2023-04-10T06:46:52.855Z,1.75
2023-04-10T06:47:55.580Z,1.62
2023-04-10T06:48:58.089Z,1.63
2023-04-10T06:50:04.215Z,1.62
2023-04-10T06:51:06.878Z,1.69
2023-04-10T06:52:09.547Z,1.74
2023-04-10T06:53:12.512Z,1.66
2023-04-10T06:54:15.287Z,1.45
2023-04-10T06:55:17.870Z,1.74
2023-04-10T06:56:20.485Z,1.66
2023-04-10T06:57:23.098Z,1.65
2023-04-10T06:58:26.182Z,1.48
2023-04-10T06:59:28.848Z,1.49
2023-04-10T07:00:31.552Z,1.33
2023-04-10T07:01:34.446Z,1.45
2023-04-10T07:02:37.074Z,1.52
2023-04-10T07:03:40.069Z,1.58
2023-04-10T07:04:42.909Z,1.88
2023-04-10T07:05:46.188Z,1.82
2023-04-10T07:06:51.284Z,1.94
2023-04-10T07:07:54.021Z,1.84
2023-04-10T07:08:56.873Z,1.82
2023-04-10T07:09:59.972Z,1.68
2023-04-10T07:11:02.735Z,1.62
2023-04-10T07:12:05.595Z,1.82
2023-04-10T07:13:08.263Z,1.75
2023-04-10T07:14:11.851Z,1.72
2023-04-10T07:15:14.852Z,1.47
2023-04-10T07:16:17.760Z,1.59
2023-04-10T07:17:20.620Z,1.65
2023-04-10T07:18:23.476Z,1.63
2023-04-10T07:19:26.738Z,1.52
2023-04-10T07:20:29.642Z,1.76
2023-04-10T07:21:32.394Z,1.91
2023-04-10T07:22:35.466Z,1.70
2023-04-10T07:23:38.461Z,1.53
2023-04-10T07:24:41.737Z,1.65
2023-04-10T07:25:44.694Z,1.73
2023-04-10T07:26:47.684Z,1.93
2023-04-10T07:27:55.390Z,2.38
2023-04-10T07:28:58.147Z,1.75
2023-04-10T07:30:01.598Z,1.82
2023-04-10T07:31:04.729Z,2.11
2023-04-10T07:32:07.674Z,2.09
2023-04-10T07:33:10.714Z,1.76
2023-04-10T07:34:13.547Z,1.90
2023-04-10T07:35:16.418Z,1.96
2023-04-10T07:36:19.032Z,2.22
2023-04-10T07:37:21.859Z,2.12
2023-04-10T07:38:30.364Z,2.09
2023-04-10T07:39:32.937Z,2.03
2023-04-10T07:40:35.713Z,1.83
2023-04-10T07:41:38.710Z,1.82
2023-04-10T07:42:41.550Z,1.85
2023-04-10T07:43:44.352Z,2.02
2023-04-10T07:44:47.401Z,2.02
2023-04-10T07:45:50.421Z,2.02
2023-04-10T07:46:53.758Z,2.37
2023-04-10T07:47:56.902Z,2.35
2023-04-10T07:48:59.736Z,2.06
2023-04-10T07:50:03.698Z,2.57
2023-04-10T07:51:06.817Z,2.92
2023-04-10T07:52:09.582Z,2.65
2023-04-10T07:53:12.477Z,2.69
2023-04-10T07:54:15.621Z,2.32
2023-04-10T07:55:20.696Z,2.35
2023-04-10T07:56:23.634Z,2.62
2023-04-10T07:57:26.523Z,2.81
2023-04-10T07:58:29.784Z,2.54
2023-04-10T07:59:32.778Z,2.29
2023-04-10T08:00:36.061Z,2.25
2023-04-10T08:01:41.989Z,2.25
2023-04-10T08:02:44.802Z,2.11
2023-04-10T08:03:48.114Z,2.09
2023-04-10T08:04:51.129Z,2.43
2023-04-10T08:05:54.022Z,2.02
2023-04-10T08:06:57.104Z,2.05
2023-04-10T08:08:00.163Z,2.07
2023-04-10T08:09:04.878Z,1.79
2023-04-10T08:10:07.974Z,1.92
2023-04-10T08:11:12.402Z,2.43
2023-04-10T08:12:15.965Z,1.84
2023-04-10T08:13:19.344Z,1.61
2023-04-10T08:14:22.238Z,2.11
2023-04-10T08:15:25.051Z,2.17
2023-04-10T08:16:27.825Z,2.16
2023-04-10T08:17:30.788Z,2.14
2023-04-10T08:18:33.936Z,2.08
2023-04-10T08:19:36.822Z,2.23
2023-04-10T08:20:39.597Z,2.17
2023-04-10T08:21:42.458Z,1.97
2023-04-10T08:22:46.040Z,2.12
2023-04-10T08:23:49.154Z,2.01
2023-04-10T08:24:52.006Z,1.90
2023-04-10T08:25:55.275Z,2.30
2023-04-10T08:26:58.663Z,2.28
2023-04-10T08:28:02.254Z,2.39
2023-04-10T08:29:05.023Z,2.30
2023-04-10T08:30:07.827Z,2.49
2023-04-10T08:31:10.823Z,2.45
2023-04-10T08:32:14.057Z,2.35
2023-04-10T08:33:16.846Z,2.48
2023-04-10T08:34:19.514Z,2.49
2023-04-10T08:35:22.689Z,2.77
2023-04-10T08:36:25.561Z,2.64
2023-04-10T08:37:28.839Z,2.62
2023-04-10T08:38:32.126Z,2.46
2023-04-10T08:39:35.213Z,2.54
2023-04-10T08:40:37.994Z,2.45
2023-04-10T08:41:41.567Z,2.56
2023-04-10T08:42:44.358Z,2.38
2023-04-10T08:43:47.444Z,2.35
2023-04-10T08:44:50.323Z,2.62
2023-04-10T08:45:53.139Z,2.22
2023-04-10T08:46:56.143Z,2.58
2023-04-10T08:47:59.975Z,2.81
2023-04-10T08:49:02.952Z,2.61
2023-04-10T08:50:07.608Z,3.05
2023-04-10T08:51:15.547Z,2.79
2023-04-10T08:52:14.947Z,3.02
2023-04-10T08:53:17.715Z,3.00
2023-04-10T08:54:20.989Z,3.29
2023-04-10T08:55:23.978Z,2.84
2023-04-10T08:56:27.051Z,3.11
2023-04-10T08:57:29.952Z,2.79
2023-04-10T08:58:33.199Z,2.79
2023-04-10T08:59:36.498Z,2.94
2023-04-10T09:00:45.588Z,3.01
2023-04-10T09:01:48.960Z,2.86
2023-04-10T09:02:52.528Z,2.90
2023-04-10T09:03:56.183Z,2.88
2023-04-10T09:04:59.476Z,3.21
2023-04-10T09:06:02.448Z,3.25
2023-04-10T09:07:12.061Z,3.24
2023-04-10T09:08:15.374Z,3.62
2023-04-10T09:09:18.429Z,3.48
2023-04-10T09:10:21.611Z,3.89
2023-04-10T09:11:24.390Z,4.31
2023-04-10T09:12:27.174Z,4.12
2023-04-10T09:13:30.249Z,4.12
2023-04-10T09:14:33.236Z,4.25
2023-04-10T09:15:35.914Z,3.78
2023-04-10T09:16:38.953Z,3.56
2023-04-10T09:17:42.160Z,3.45
2023-04-10T09:18:45.049Z,3.38
2023-04-10T09:19:47.724Z,2.95
2023-04-10T09:20:56.440Z,3.03
2023-04-10T09:21:59.280Z,3.04
2023-04-10T09:23:04.398Z,3.12
2023-04-10T09:24:07.293Z,3.07
2023-04-10T09:25:09.859Z,3.02
2023-04-10T09:26:13.334Z,2.84
2023-04-10T09:27:16.220Z,2.98
2023-04-10T09:28:19.499Z,2.85
2023-04-10T09:29:22.774Z,3.02
2023-04-10T09:30:25.645Z,3.00
2023-04-10T09:31:28.897Z,3.04
2023-04-10T09:32:33.237Z,3.01
2023-04-10T09:33:36.229Z,3.24
2023-04-10T09:34:39.100Z,2.90
2023-04-10T09:35:41.984Z,2.91
2023-04-10T09:36:45.210Z,3.18
2023-04-10T09:37:48.242Z,3.32
2023-04-10T09:38:51.121Z,3.05
2023-04-10T09:39:54.005Z,3.03
2023-04-10T09:40:56.762Z,3.50
2023-04-10T09:41:59.940Z,3.51
2023-04-10T09:43:09.703Z,3.72
2023-04-10T09:44:13.052Z,3.96
2023-04-10T09:45:16.151Z,4.06
2023-04-10T09:46:19.431Z,5.12
2023-04-10T09:47:23.019Z,5.01
2023-04-10T09:48:28.002Z,4.22
2023-04-10T09:49:31.115Z,4.04
2023-04-10T09:50:37.027Z,4.66
2023-04-10T09:51:38.705Z,4.82
2023-04-10T09:52:42.191Z,4.05
2023-04-10T09:53:45.371Z,4.13
2023-04-10T09:54:48.558Z,3.94
2023-04-10T09:55:51.548Z,4.15
2023-04-10T09:56:54.782Z,4.02
2023-04-10T09:57:58.100Z,3.73
2023-04-10T09:59:01.004Z,3.92
2023-04-10T10:00:04.099Z,3.77
2023-04-10T10:01:07.148Z,4.09
2023-04-10T10:02:10.632Z,4.20
2023-04-10T10:03:13.627Z,4.05
2023-04-10T10:04:16.475Z,3.85
2023-04-10T10:05:19.062Z,3.80
2023-04-10T10:06:22.122Z,3.72
2023-04-10T10:07:25.228Z,3.77
2023-04-10T10:08:28.481Z,3.93
2023-04-10T10:09:34.862Z,3.53
2023-04-10T10:10:37.633Z,3.73
2023-04-10T10:11:42.989Z,3.68
2023-04-10T10:12:46.255Z,3.50
2023-04-10T10:13:50.001Z,3.12
2023-04-10T10:14:53.001Z,2.97
2023-04-10T10:15:56.200Z,2.78
2023-04-10T10:16:59.178Z,2.51
2023-04-10T10:18:02.387Z,2.38
2023-04-10T10:19:05.744Z,2.40
2023-04-10T10:20:08.815Z,2.31
2023-04-10T10:21:11.815Z,2.29
2023-04-10T10:22:14.482Z,2.78
2023-04-10T10:23:17.157Z,2.51
2023-04-10T10:24:20.003Z,2.28
2023-04-10T10:25:22.634Z,2.27
2023-04-10T10:26:25.264Z,2.54
2023-04-10T10:27:28.424Z,2.36
2023-04-10T10:28:31.298Z,2.46
2023-04-10T10:29:34.094Z,2.30
2023-04-10T10:30:36.670Z,1.79
2023-04-10T10:31:41.545Z,2.22
2023-04-10T10:32:44.348Z,2.29
2023-04-10T10:33:47.227Z,2.05
2023-04-10T10:34:50.122Z,2.35
2023-04-10T10:35:53.179Z,1.73
2023-04-10T10:36:55.978Z,1.92
2023-04-10T10:37:58.843Z,2.36
2023-04-10T10:39:01.659Z,2.20
2023-04-10T10:40:05.008Z,2.24
2023-04-10T10:41:12.911Z,1.95
2023-04-10T10:42:19.938Z,1.94
2023-04-10T10:43:22.912Z,1.92
2023-04-10T10:44:26.106Z,1.91
2023-04-10T10:45:29.614Z,1.79
2023-04-10T10:46:35.836Z,1.85
2023-04-10T10:47:38.658Z,1.84
2023-04-10T10:48:41.296Z,1.75
2023-04-10T10:49:43.976Z,1.70
2023-04-10T10:50:49.666Z,1.55
2023-04-10T10:51:52.375Z,1.39
2023-04-10T10:52:55.031Z,1.52
2023-04-10T10:53:57.726Z,1.41
2023-04-10T10:55:07.336Z,1.57
2023-04-10T10:56:10.345Z,1.73
2023-04-10T10:57:13.494Z,1.46
2023-04-10T10:58:16.371Z,1.55
2023-04-10T10:59:19.452Z,1.71
2023-04-10T11:00:28.455Z,1.71
2023-04-10T11:01:31.161Z,1.62
2023-04-10T11:02:34.167Z,1.72
2023-04-10T11:03:37.062Z,1.70
2023-04-10T11:04:39.865Z,1.54
2023-04-10T11:05:42.637Z,1.78
2023-04-10T11:06:45.508Z,1.82
2023-04-10T11:07:48.495Z,1.72
2023-04-10T11:08:51.588Z,1.73
2023-04-10T11:09:54.606Z,1.48
2023-04-10T11:10:57.317Z,1.68
2023-04-10T11:12:00.410Z,1.69
2023-04-10T11:13:03.375Z,1.76
2023-04-10T11:14:07.837Z,1.58
2023-04-10T11:15:10.551Z,1.43
2023-04-10T11:16:13.369Z,1.62
2023-04-10T11:17:18.674Z,1.47
2023-04-10T11:18:21.534Z,1.65
2023-04-10T11:19:24.643Z,1.82
2023-04-10T11:20:27.597Z,1.57
2023-04-10T11:21:30.671Z,1.72
2023-04-10T11:22:33.647Z,1.51
2023-04-10T11:23:36.522Z,1.70
2023-04-10T11:24:41.645Z,1.74
2023-04-10T11:25:44.322Z,1.75
2023-04-10T11:26:47.092Z,1.56
2023-04-10T11:27:50.169Z,1.57
2023-04-10T11:28:53.201Z,1.80
2023-04-10T11:29:56.471Z,1.92
2023-04-10T11:30:59.712Z,1.80
2023-04-10T11:32:02.924Z,1.54
2023-04-10T11:33:10.999Z,1.59
2023-04-10T11:34:14.173Z,1.48
2023-04-10T11:35:17.128Z,1.39
2023-04-10T11:36:19.922Z,1.59
2023-04-10T11:37:25.047Z,1.76
2023-04-10T11:38:27.942Z,1.47
2023-04-10T11:39:30.695Z,1.72
2023-04-10T11:40:33.878Z,1.78
2023-04-10T11:41:36.672Z,1.88
2023-04-10T11:42:39.631Z,2.17
2023-04-10T11:43:42.605Z,2.31
2023-04-10T11:44:47.156Z,2.30
2023-04-10T11:45:50.103Z,2.54
2023-04-10T11:46:52.868Z,2.35
2023-04-10T11:47:55.765Z,2.57
2023-04-10T11:48:59.128Z,2.60
2023-04-10T11:50:02.522Z,2.83
2023-04-10T11:51:05.186Z,2.90
2023-04-10T11:52:08.053Z,2.48
2023-04-10T11:53:10.932Z,2.52
2023-04-10T11:54:14.008Z,2.39
2023-04-10T11:55:16.894Z,1.94
2023-04-10T11:56:20.177Z,2.18
2023-04-10T11:57:23.357Z,2.18
2023-04-10T11:58:26.336Z,2.26
2023-04-10T11:59:31.738Z,2.15
2023-04-10T12:00:34.430Z,1.73
2023-04-10T12:01:39.910Z,1.92
2023-04-10T12:02:43.200Z,1.83
2023-04-10T12:03:46.201Z,1.70
2023-04-10T12:04:50.613Z,1.95
2023-04-10T12:05:53.514Z,1.99
2023-04-10T12:06:56.396Z,1.63
2023-04-10T12:07:59.170Z,1.74
2023-04-10T12:09:02.204Z,1.78
2023-04-10T12:10:11.580Z,2.02
2023-04-10T12:11:14.554Z,1.70
2023-04-10T12:12:19.126Z,1.86
2023-04-10T12:13:21.838Z,1.62
2023-04-10T12:14:24.807Z,1.68
2023-04-10T12:15:27.812Z,1.73
2023-04-10T12:16:30.663Z,1.58
2023-04-10T12:17:33.765Z,1.56
2023-04-10T12:18:43.256Z,1.66
2023-04-10T12:19:45.940Z,1.72
2023-04-10T12:20:48.829Z,1.84
2023-04-10T12:21:51.598Z,1.59
2023-04-10T12:22:54.980Z,1.45
2023-04-10T12:23:57.650Z,1.29
2023-04-10T12:25:00.827Z,1.62
2023-04-10T12:26:03.705Z,1.69
2023-04-10T12:27:06.782Z,1.83
2023-04-10T12:28:09.665Z,1.81
2023-04-10T12:29:12.837Z,1.62
2023-04-10T12:30:17.040Z,1.64
2023-04-10T12:31:19.992Z,1.69
2023-04-10T12:32:22.823Z,1.57
2023-04-10T12:33:25.693Z,1.62
2023-04-10T12:34:28.661Z,1.42
2023-04-10T12:35:31.544Z,1.87
2023-04-10T12:36:34.813Z,1.67
2023-04-10T12:37:37.686Z,1.37
2023-04-10T12:38:40.662Z,1.53
2023-04-10T12:39:43.635Z,1.48
2023-04-10T12:40:46.408Z,1.67
2023-04-10T12:41:49.277Z,1.55
2023-04-10T12:42:52.302Z,1.51
2023-04-10T12:43:55.338Z,1.68
2023-04-10T12:44:58.116Z,1.76
2023-04-10T12:46:00.956Z,1.45
2023-04-10T12:47:04.163Z,1.59
2023-04-10T12:48:07.006Z,1.61
2023-04-10T12:49:09.923Z,1.64
2023-04-10T12:50:12.698Z,1.62
2023-04-10T12:51:15.680Z,1.77
2023-04-10T12:52:22.125Z,1.46
2023-04-10T12:53:25.002Z,1.68
2023-04-10T12:54:28.934Z,1.60
2023-04-10T12:55:32.030Z,1.77
2023-04-10T12:56:34.864Z,1.94
2023-04-10T12:57:37.634Z,1.68
2023-04-10T12:58:40.609Z,1.73
2023-04-10T12:59:43.578Z,1.75
2023-04-10T13:00:58.738Z,1.52
2023-04-10T13:02:02.995Z,1.59
2023-04-10T13:03:06.012Z,1.54
2023-04-10T13:04:09.044Z,1.53
2023-04-10T13:05:15.200Z,1.58
2023-04-10T13:06:20.485Z,1.57
2023-04-10T13:07:23.359Z,1.63
2023-04-10T13:08:28.362Z,1.53
2023-04-10T13:09:31.054Z,1.43
2023-04-10T13:10:33.935Z,1.65
2023-04-10T13:11:37.003Z,1.89
2023-04-10T13:12:39.986Z,1.77
2023-04-10T13:13:43.068Z,1.68
2023-04-10T13:14:45.844Z,1.76
2023-04-10T13:15:48.536Z,1.79
2023-04-10T13:16:51.279Z,1.87
2023-04-10T13:17:54.355Z,1.58
2023-04-10T13:18:57.446Z,1.65
2023-04-10T13:20:00.312Z,1.46
2023-04-10T13:21:03.403Z,1.59
2023-04-10T13:22:06.373Z,1.86
2023-04-10T13:23:09.453Z,1.72
2023-04-10T13:24:14.707Z,1.65
2023-04-10T13:25:16.947Z,1.61
2023-04-10T13:26:21.250Z,1.73
2023-04-10T13:27:23.914Z,1.65
2023-04-10T13:28:26.795Z,1.94
2023-04-10T13:29:29.768Z,1.83
2023-04-10T13:30:32.649Z,1.66
2023-04-10T13:31:35.360Z,1.55
2023-04-10T13:32:38.248Z,1.68
2023-04-10T13:33:40.624Z,1.67
2023-04-10T13:34:43.426Z,1.98
2023-04-10T13:35:46.357Z,1.46
2023-04-10T13:36:49.065Z,1.78
2023-04-10T13:37:51.848Z,1.92
2023-04-10T13:38:54.876Z,1.62
2023-04-10T13:39:58.004Z,1.75
2023-04-10T13:41:00.774Z,1.54
2023-04-10T13:42:03.720Z,1.53
2023-04-10T13:43:06.629Z,1.73
2023-04-10T13:44:09.501Z,1.71
2023-04-10T13:45:12.371Z,1.87
2023-04-10T13:46:15.193Z,1.88
2023-04-10T13:47:19.615Z,1.56
2023-04-10T13:48:29.859Z,1.81
2023-04-10T13:49:26.644Z,1.89
2023-04-10T13:50:29.425Z,1.71
2023-04-10T13:51:32.193Z,1.78
2023-04-10T13:52:35.060Z,1.85
2023-04-10T13:53:37.831Z,1.75
2023-04-10T13:54:40.632Z,1.75
2023-04-10T13:55:43.594Z,1.59
2023-04-10T13:56:46.709Z,1.62
2023-04-10T13:57:49.955Z,1.62
2023-04-10T13:58:52.987Z,1.57
2023-04-10T13:59:55.793Z,1.67
2023-04-10T14:00:58.938Z,1.76